Time;durP1;ratioP1;P1;durP2;ratioP2;P2;SDS_P1;SDS_P2;PMS_P1;PMS_P2;Temp;Humidity;BMP_temperature;BMP_pressure;BME280_temperature;BME280_humidity;BME280_pressure;Samples;Min_cycle;Max_cycle;Signal;HPM_P1;HPM_P2
2022/12/03 00:01:12;;;;;;;19.95;7.68;;;3.50;99.90;;;;;;5076740;27;20097;-81
2022/12/03 00:03:37;;;;;;;13.63;5.65;;;3.70;99.90;;;;;;5069288;27;20119;-81
2022/12/03 00:06:03;;;;;;;15.57;6.63;;;2.00;99.90;;;;;;5077420;27;20122;-81
2022/12/03 00:08:29;;;;;;;15.15;6.05;;;2.10;99.90;;;;;;5088412;28;20051;-81
2022/12/03 00:10:55;;;;;;;14.10;6.28;;;2.10;99.90;;;;;;5117691;27;20043;-83
2022/12/03 00:13:20;;;;;;;15.52;6.20;;;2.70;99.90;;;;;;5069361;28;20039;-83
2022/12/03 00:15:46;;;;;;;14.98;5.43;;;2.00;99.90;;;;;;5066991;28;20051;-83
2022/12/03 00:18:12;;;;;;;14.27;5.95;;;3.00;99.90;;;;;;5076414;28;20085;-83
2022/12/03 00:20:37;;;;;;;14.35;5.63;;;3.80;99.90;;;;;;5078217;28;20043;-83
2022/12/03 00:23:03;;;;;;;14.80;5.47;;;2.90;99.90;;;;;;5062583;28;20475;-83
2022/12/03 00:25:31;;;;;;;11.90;4.82;;;3.00;99.90;;;;;;5108613;28;20055;-83
2022/12/03 00:27:57;;;;;;;12.85;6.00;;;2.60;99.90;;;;;;5077177;28;20570;-80
2022/12/03 00:30:23;;;;;;;11.02;4.43;;;1.90;99.90;;;;;;5078913;28;20122;-80
2022/12/03 00:32:49;;;;;;;11.85;4.55;;;4.20;99.90;;;;;;5075628;28;20048;-80
2022/12/03 00:35:15;;;;;;;9.55;4.18;;;3.80;99.90;;;;;;5111670;28;20427;-80
2022/12/03 00:37:40;;;;;;;12.43;5.15;;;2.60;99.90;;;;;;5094229;28;20054;-80
2022/12/03 00:40:07;;;;;;;13.73;5.30;;;2.70;99.90;;;;;;5094284;28;20506;-80
2022/12/03 00:42:36;;;;;;;11.63;5.47;;;2.80;99.90;;;;;;5061095;28;20043;-80
2022/12/03 00:45:01;;;;;;;10.10;4.97;;;4.20;99.90;;;;;;5043395;28;20368;-80
2022/12/03 00:47:28;;;;;;;8.75;4.50;;;;;;;;;;5059331;28;20035;-80
2022/12/03 00:49:56;;;;;;;9.88;4.47;;;3.20;99.90;;;;;;5057569;28;20046;-80
2022/12/03 00:52:24;;;;;;;11.95;4.30;;;4.80;99.90;;;;;;5033179;28;20071;-80
2022/12/03 00:54:50;;;;;;;10.00;4.20;;;3.70;99.90;;;;;;5039706;28;20531;-80
2022/12/03 00:57:18;;;;;;;12.65;4.90;;;3.30;99.90;;;;;;5085608;28;20118;-80
2022/12/03 00:59:44;;;;;;;10.05;4.30;;;;;;;;;;5092733;28;20036;-80
2022/12/03 01:02:10;;;;;;;12.63;4.45;;;3.50;99.90;;;;;;5093680;28;20032;-80
2022/12/03 01:04:36;;;;;;;9.60;4.45;;;4.30;99.90;;;;;;5078012;28;20050;-80
2022/12/03 01:07:04;;;;;;;9.23;4.00;;;3.50;99.90;;;;;;5095961;28;20035;-80
2022/12/03 01:09:30;;;;;;;9.07;4.30;;;4.90;99.90;;;;;;5078306;28;20039;-80
2022/12/03 01:11:56;;;;;;;10.30;4.72;;;4.70;99.90;;;;;;5078431;28;20050;-80
2022/12/03 01:14:22;;;;;;;12.43;5.45;;;4.80;99.90;;;;;;5078073;28;20040;-80
2022/12/03 01:16:48;;;;;;;13.85;4.35;;;4.00;99.90;;;;;;5045100;28;20050;-83
2022/12/03 01:19:15;;;;;;;11.75;4.82;;;4.50;99.90;;;;;;5077383;28;20552;-83
2022/12/03 01:21:42;;;;;;;9.77;4.68;;;4.70;99.90;;;;;;5095195;28;20398;-83
2022/12/03 01:24:08;;;;;;;10.45;4.50;;;3.60;99.90;;;;;;5078147;28;20050;-83
2022/12/03 01:26:33;;;;;;;8.80;4.50;;;3.60;99.90;;;;;;5077793;28;20040;-83
2022/12/03 01:28:59;;;;;;;12.65;5.00;;;3.60;99.90;;;;;;5094821;28;20066;-83
2022/12/03 01:34:09;;;;;;;9.98;4.55;;;3.60;99.90;;;;;;5112064;28;20039;-81
2022/12/03 01:36:35;;;;;;;11.95;4.88;;;3.80;99.90;;;;;;5081226;28;20585;-80
2022/12/03 01:39:02;;;;;;;11.68;4.82;;;3.60;99.90;;;;;;5098328;28;20044;-80
2022/12/03 01:41:30;;;;;;;9.50;4.45;;;3.80;99.90;;;;;;5098259;28;20036;-80
2022/12/03 01:43:57;;;;;;;12.50;5.63;;;3.80;99.90;;;;;;5112743;27;20043;-80
2022/12/03 01:46:26;;;;;;;13.02;4.57;;;3.80;99.90;;;;;;5101520;27;20122;-80
2022/12/03 01:48:54;;;;;;;12.27;4.60;;;3.80;99.90;;;;;;5104616;28;20487;-80
2022/12/03 01:51:20;;;;;;;11.25;4.40;;;5.20;99.90;;;;;;5098226;28;20043;-80
2022/12/03 01:53:46;;;;;;;11.15;4.95;;;4.10;99.90;;;;;;5081473;28;20040;-80
2022/12/03 01:56:14;;;;;;;9.57;4.97;;;4.20;99.90;;;;;;5098072;28;20043;-80
2022/12/03 01:58:40;;;;;;;12.85;4.68;;;3.90;99.90;;;;;;5081391;28;20055;-80
2022/12/03 02:01:11;;;;;;;10.77;4.40;;;4.00;99.90;;;;;;5097791;28;20054;-80
2022/12/03 02:03:37;;;;;;;10.30;4.75;;;3.90;99.90;;;;;;5097674;28;20047;-80
2022/12/03 02:06:03;;;;;;;11.73;4.82;;;4.00;99.90;;;;;;5097853;28;20032;-80
2022/12/03 02:08:33;;;;;;;11.02;5.07;;;4.00;99.90;;;;;;5080703;28;20422;-80
2022/12/03 02:11:20;;;;;;;7.88;4.50;;;3.90;99.90;;;;;;5097745;28;20122;-80
2022/12/03 02:13:50;;;;;;;8.07;3.75;;;4.40;99.90;;;;;;5097899;28;20118;-80
2022/12/03 02:16:15;;;;;;;9.32;4.72;;;4.10;99.90;;;;;;5097882;28;20092;-80
2022/12/03 02:18:42;;;;;;;11.20;4.63;;;4.40;99.90;;;;;;5097625;28;20391;-81
2022/12/03 02:21:28;;;;;;;13.38;5.85;;;4.10;99.90;;;;;;5080593;28;20519;-80
2022/12/03 02:24:06;;;;;;;12.37;5.27;;;3.90;99.90;;;;;;5097569;28;20054;-80
2022/12/03 02:26:32;;;;;;;12.13;4.32;;;3.90;99.90;;;;;;5097689;28;20082;-80
2022/12/03 02:28:58;;;;;;;11.63;5.75;;;3.80;99.90;;;;;;5097764;28;20110;-80
2022/12/03 02:31:23;;;;;;;10.43;4.97;;;4.20;99.90;;;;;;5097717;28;20035;-80
2022/12/03 02:33:49;;;;;;;11.98;5.13;;;3.90;99.90;;;;;;5080806;28;20475;-80
2022/12/03 02:36:15;;;;;;;17.02;5.93;;;4.00;99.90;;;;;;5097383;28;20407;-80
2022/12/03 02:38:43;;;;;;;14.85;5.10;;;5.10;99.90;;;;;;5097142;28;20036;-80
2022/12/03 02:42:33;;;;;;;11.07;4.85;;;4.30;99.90;;;;;;5096229;28;20047;-80
2022/12/03 02:44:01;;;;;;;13.05;5.00;;;3.90;99.90;;;;;;5076824;28;20044;-80
2022/12/03 02:46:26;;;;;;;9.07;4.63;;;5.40;99.90;;;;;;5076855;28;20043;-80
2022/12/03 02:48:52;;;;;;;14.48;5.45;;;3.90;99.90;;;;;;5060378;28;20047;-80
2022/12/03 02:51:18;;;;;;;12.85;5.90;;;4.20;99.90;;;;;;5088913;28;20368;-80
2022/12/03 02:53:47;;;;;;;8.52;4.40;;;4.50;99.90;;;;;;5097098;28;20426;-80
2022/12/03 02:56:19;;;;;;;13.00;5.68;;;4.30;99.90;;;;;;5097038;28;20039;-83
2022/12/03 02:58:47;;;;;;;12.52;4.78;;;3.90;99.90;;;;;;5096843;28;20075;-83
2022/12/03 03:01:14;;;;;;;12.27;5.07;;;4.40;99.90;;;;;;5079569;28;20479;-83
2022/12/03 03:03:40;;;;;;;9.25;4.82;;;5.10;99.90;;;;;;5096693;28;20039;-83
2022/12/03 03:06:08;;;;;;;13.43;6.03;;;4.70;99.90;;;;;;5096517;28;20031;-83
2022/12/03 03:08:34;;;;;;;12.15;5.43;;;3.80;99.90;;;;;;5096526;28;20040;-83
2022/12/03 03:11:01;;;;;;;13.73;5.13;;;3.80;99.90;;;;;;5080013;28;20046;-83
2022/12/03 03:13:29;;;;;;;10.55;4.95;;;4.80;99.90;;;;;;5096804;28;20364;-81
2022/12/03 03:15:55;;;;;;;13.98;5.97;;;3.90;99.90;;;;;;5094893;28;20597;-81
2022/12/03 03:18:21;;;;;;;15.20;5.35;;;4.30;99.90;;;;;;5079520;28;20043;-81
2022/12/03 03:20:47;;;;;;;12.05;5.30;;;4.70;99.90;;;;;;5079584;28;20043;-81
2022/12/03 03:23:18;;;;;;;12.98;6.28;;;3.80;99.90;;;;;;5096872;28;20135;-81
2022/12/03 03:25:48;;;;;;;14.05;5.82;;;4.80;99.90;;;;;;5079516;28;20042;-81
2022/12/03 03:28:15;;;;;;;14.40;6.88;;;3.80;99.90;;;;;;5096975;28;20122;-81
2022/12/03 03:30:42;;;;;;;13.70;5.95;;;3.80;99.90;;;;;;5079996;28;20148;-80
2022/12/03 03:33:08;;;;;;;14.43;7.05;;;4.40;99.90;;;;;;5079409;28;20118;-80
2022/12/03 03:35:35;;;;;;;12.00;5.85;;;4.60;99.90;;;;;;5096244;28;20047;-80
2022/12/03 03:38:01;;;;;;;11.43;5.38;;;3.70;99.90;;;;;;5096355;28;20071;-80
2022/12/03 03:40:27;;;;;;;13.90;5.75;;;3.50;99.90;;;;;;5096931;28;20040;-80
2022/12/03 03:42:54;;;;;;;12.98;5.13;;;3.60;99.90;;;;;;5076645;28;20106;-80
2022/12/03 03:45:20;;;;;;;13.00;6.28;;;4.70;99.90;;;;;;5091914;28;20122;-80
2022/12/03 03:47:46;;;;;;;14.73;5.68;;;4.00;99.90;;;;;;5096523;28;20126;-80
2022/12/03 03:50:13;;;;;;;13.68;6.60;;;4.90;99.90;;;;;;5079548;28;20118;-80
2022/12/03 03:52:40;;;;;;;12.52;5.80;;;4.80;99.90;;;;;;5079138;28;20054;-80
2022/12/03 03:55:06;;;;;;;13.55;5.78;;;3.60;99.90;;;;;;5077893;28;20039;-80
2022/12/03 03:57:32;;;;;;;14.95;6.00;;;3.60;99.90;;;;;;5095624;28;20070;-80
2022/12/03 03:59:59;;;;;;;16.17;6.43;;;3.50;99.90;;;;;;5078747;28;20518;-80
2022/12/03 04:02:26;;;;;;;15.15;5.03;;;3.90;99.90;;;;;;5096068;28;20429;-80
2022/12/03 04:04:52;;;;;;;12.43;5.35;;;3.50;99.90;;;;;;5079084;28;20071;-80
2022/12/03 04:07:18;;;;;;;15.18;6.10;;;3.50;99.90;;;;;;5095331;28;20036;-80
2022/12/03 04:09:44;;;;;;;12.45;6.30;;;3.50;99.90;;;;;;5095379;28;20047;-80
2022/12/03 04:14:58;;;;;;;16.25;6.18;;;3.70;99.90;;;;;;5099626;28;20039;-80
2022/12/03 04:17:24;;;;;;;20.27;6.68;;;3.40;99.90;;;;;;5095670;28;20040;-80
2022/12/03 04:19:49;;;;;;;14.60;6.38;;;4.10;99.90;;;;;;5102621;28;20089;-83
2022/12/03 04:30:28;;;;;;;15.73;7.20;;;3.30;99.90;;;;;;5061297;28;20052;-83
2022/12/03 04:35:43;;;;;;;17.50;6.97;;;4.30;99.90;;;;;;5070742;28;20044;-83
2022/12/03 04:38:14;;;;;;;14.60;6.47;;;3.30;99.90;;;;;;5078910;28;20043;-80
2022/12/03 04:43:28;;;;;;;15.00;7.38;;;3.30;99.90;;;;;;5092506;28;20039;-80
2022/12/03 04:45:54;;;;;;;14.52;6.45;;;3.30;99.90;;;;;;5082595;28;20040;-80
2022/12/03 04:48:22;;;;;;;20.20;6.78;;;4.50;99.90;;;;;;5095919;28;20051;-80
2022/12/03 04:50:48;;;;;;;14.82;6.40;;;;;;;;;;5061859;28;20046;-80
2022/12/03 04:53:14;;;;;;;11.07;5.68;;;3.30;99.90;;;;;;5062631;28;20044;-80
2022/12/03 04:55:40;;;;;;;13.48;5.63;;;3.30;99.90;;;;;;5113738;28;20050;-80
2022/12/03 04:58:06;;;;;;;16.50;6.30;;;2.70;99.90;;;;;;5095620;28;20130;-80
2022/12/03 05:00:31;;;;;;;16.55;6.65;;;3.90;99.90;;;;;;5113663;28;20491;-80
2022/12/03 05:02:57;;;;;;;16.25;6.57;;;4.70;99.90;;;;;;5062084;28;20050;-80
2022/12/03 05:05:23;;;;;;;15.25;6.72;;;3.10;99.90;;;;;;5097735;28;20467;-80
2022/12/03 05:07:48;;;;;;;12.18;5.07;;;3.10;99.90;;;;;;5082606;28;20066;-80
2022/12/03 05:10:14;;;;;;;16.10;6.63;;;4.90;99.90;;;;;;5066031;28;20042;-80
2022/12/03 05:12:40;;;;;;;16.60;6.35;;;3.10;99.90;;;;;;5099526;28;20046;-80
2022/12/03 05:15:06;;;;;;;16.65;6.00;;;4.20;99.90;;;;;;5065936;28;20054;-80
2022/12/03 05:17:32;;;;;;;16.70;7.18;;;;;;;;;;5082339;28;20048;-80
2022/12/03 05:22:45;;;;;;;16.63;6.22;;;4.20;99.90;;;;;;5098833;28;20091;-80
2022/12/03 05:25:10;;;;;;;15.05;5.50;;;3.00;99.90;;;;;;5098932;28;20122;-80
2022/12/03 05:27:42;;;;;;;11.93;5.57;;;4.30;99.90;;;;;;5117280;28;20174;-80
2022/12/03 05:30:08;;;;;;;16.00;7.68;;;3.00;99.90;;;;;;5082175;28;20558;-80
2022/12/03 05:32:34;;;;;;;16.10;7.32;;;3.00;99.90;;;;;;5081962;28;20046;-80
2022/12/03 05:35:00;;;;;;;17.73;7.30;;;4.50;99.90;;;;;;5065463;28;20035;-80
2022/12/03 05:37:25;;;;;;;17.70;7.15;;;3.20;99.90;;;;;;5099028;28;20435;-80
2022/12/03 05:39:51;;;;;;;19.55;7.20;;;;;;;;;;5065491;28;20123;-80
2022/12/03 05:45:02;;;;;;;17.30;8.20;;;3.00;99.90;;;;;;5098515;28;20050;-80
2022/12/03 05:47:28;;;;;;;16.15;6.82;;;3.10;99.90;;;;;;5096334;28;20402;-81
2022/12/03 05:49:57;;;;;;;15.82;6.63;;;3.10;99.90;;;;;;5081657;28;20039;-80
2022/12/03 05:52:22;;;;;;;16.38;6.82;;;2.90;99.90;;;;;;5082662;28;20040;-80
2022/12/03 05:54:48;;;;;;;13.95;5.95;;;3.90;99.90;;;;;;5117511;28;20352;-80
2022/12/03 05:57:14;;;;;;;15.20;7.35;;;4.50;99.90;;;;;;5081590;28;20074;-80
2022/12/03 05:59:40;;;;;;;18.02;6.63;;;3.10;99.90;;;;;;5081706;28;20398;-83
2022/12/03 06:02:06;;;;;;;15.15;6.55;;;3.00;99.90;;;;;;5082012;28;20364;-83
2022/12/03 06:04:31;;;;;;;17.58;6.70;;;3.20;99.90;;;;;;5081834;28;20135;-83
2022/12/03 06:06:57;;;;;;;13.10;5.97;;;;;;;;;;5081379;28;20036;-83
2022/12/03 06:09:23;;;;;;;18.08;6.57;;;3.10;99.90;;;;;;5080964;28;20502;-83
2022/12/03 06:11:52;;;;;;;18.80;7.07;;;;;;;;;;5048145;28;20040;-83
2022/12/03 06:14:19;;;;;;;15.63;7.03;;;3.10;99.90;;;;;;5081223;28;20035;-83
2022/12/03 06:16:45;;;;;;;17.35;7.10;;;4.80;99.90;;;;;;5063455;28;20651;-81
2022/12/03 06:19:11;;;;;;;13.77;6.55;;;4.00;99.90;;;;;;5068203;28;20051;-81
2022/12/03 06:21:36;;;;;;;17.73;7.28;;;4.40;99.90;;;;;;5080963;28;20058;-81
2022/12/03 06:24:05;;;;;;;15.75;7.93;;;3.00;99.90;;;;;;5080883;28;20047;-81
2022/12/03 06:26:31;;;;;;;16.60;5.95;;;3.10;99.90;;;;;;5097490;28;20042;-81
2022/12/03 06:28:56;;;;;;;15.15;6.35;;;3.10;99.90;;;;;;5097449;28;20122;-81
2022/12/03 06:31:22;;;;;;;19.08;7.28;;;3.00;99.90;;;;;;5081137;28;20032;-81
2022/12/03 06:33:48;;;;;;;16.73;7.05;;;3.00;99.90;;;;;;5081005;28;20036;-81
2022/12/03 06:36:13;;;;;;;13.32;6.07;;;3.00;99.90;;;;;;5080820;28;20039;-80
2022/12/03 06:38:40;;;;;;;16.08;6.88;;;4.30;99.90;;;;;;5097779;28;20044;-80
2022/12/03 06:41:06;;;;;;;18.63;6.72;;;3.60;99.90;;;;;;5047847;28;20039;-80
2022/12/03 06:43:31;;;;;;;15.05;6.20;;;2.90;99.90;;;;;;5097830;28;20574;-81
2022/12/03 06:45:57;;;;;;;16.23;6.38;;;3.00;99.90;;;;;;5080622;28;20425;-80
2022/12/03 06:48:23;;;;;;;13.88;6.43;;;4.10;99.90;;;;;;5080563;28;20515;-80
2022/12/03 06:50:48;;;;;;;14.93;5.97;;;3.00;99.90;;;;;;5097523;28;20410;-83
2022/12/03 06:53:14;;;;;;;18.38;6.97;;;3.00;99.90;;;;;;5063737;28;20096;-83
2022/12/03 06:55:40;;;;;;;15.52;6.93;;;4.30;99.90;;;;;;5080355;28;20040;-83
2022/12/03 06:58:05;;;;;;;19.85;7.32;;;3.00;99.90;;;;;;5063390;28;20039;-83
2022/12/03 07:00:31;;;;;;;11.95;6.00;;;3.00;99.90;;;;;;5096838;28;20396;-83
2022/12/03 07:02:57;;;;;;;15.82;6.15;;;3.00;99.90;;;;;;5080258;28;20042;-83
2022/12/03 07:05:23;;;;;;;14.05;6.47;;;3.00;99.90;;;;;;5097274;28;20079;-83
2022/12/03 07:07:50;;;;;;;18.58;7.28;;;3.00;99.90;;;;;;5097048;28;20047;-80
2022/12/03 07:10:20;;;;;;;15.77;6.85;;;3.90;99.90;;;;;;5096297;28;20517;-80
2022/12/03 07:12:46;;;;;;;14.95;6.32;;;3.30;99.90;;;;;;5097318;28;20417;-80
2022/12/03 07:15:12;;;;;;;13.52;6.05;;;4.40;99.90;;;;;;5115488;27;20042;-80
2022/12/03 07:17:40;;;;;;;14.70;6.03;;;3.00;99.90;;;;;;5090546;27;20415;-80
2022/12/03 07:20:06;;;;;;;16.88;7.00;;;2.90;99.90;;;;;;5099694;27;20108;-81
2022/12/03 07:22:32;;;;;;;15.82;6.88;;;2.90;99.90;;;;;;5117346;27;20500;-80
2022/12/03 07:25:01;;;;;;;15.98;6.45;;;2.90;99.90;;;;;;5103014;28;20181;-83
2022/12/03 07:28:01;;;;;;;21.20;7.32;;;2.90;99.90;;;;;;5079671;28;20036;-83
2022/12/03 07:30:27;;;;;;;20.70;6.47;;;;;;;;;;5061448;27;20558;-82
2022/12/03 07:32:53;;;;;;;17.42;6.90;;;2.90;99.90;;;;;;5099631;27;20050;-82
2022/12/03 07:35:20;;;;;;;20.02;6.75;;;2.90;99.90;;;;;;5070629;28;20039;-82
2022/12/03 07:37:46;;;;;;;16.83;7.50;;;4.70;99.90;;;;;;5069000;27;20047;-82
2022/12/03 07:40:12;;;;;;;14.15;6.50;;;4.60;99.90;;;;;;5084997;28;20081;-83
2022/12/03 07:42:38;;;;;;;18.00;6.75;;;3.00;99.90;;;;;;5077152;28;20510;-83
2022/12/03 07:45:04;;;;;;;16.55;7.35;;;4.10;99.90;;;;;;5088579;28;20100;-83
2022/12/03 07:47:30;;;;;;;13.98;5.93;;;2.90;99.90;;;;;;5099024;27;20118;-82
2022/12/03 07:49:55;;;;;;;15.27;6.28;;;3.00;99.90;;;;;;5087049;28;20139;-83
2022/12/03 07:52:21;;;;;;;17.27;6.25;;;2.80;99.90;;;;;;5098362;28;20696;-83
2022/12/03 07:54:47;;;;;;;15.15;6.68;;;2.80;99.90;;;;;;5101464;27;20080;-83
2022/12/03 07:57:13;;;;;;;16.65;6.57;;;2.80;99.90;;;;;;5081822;28;20483;-82
2022/12/03 07:59:38;;;;;;;19.95;8.23;;;3.90;99.90;;;;;;5102450;27;20042;-83
2022/12/03 08:02:05;;;;;;;18.95;7.20;;;2.80;99.90;;;;;;5077778;28;20395;-84
2022/12/03 08:04:31;;;;;;;19.13;8.13;;;2.80;99.90;;;;;;5045975;28;20040;-84
2022/12/03 08:06:56;;;;;;;17.50;6.88;;;2.00;99.90;;;;;;5085016;28;20024;-84
2022/12/03 08:09:22;;;;;;;13.90;6.50;;;2.80;99.90;;;;;;5080325;27;20096;-84
2022/12/03 08:11:48;;;;;;;14.48;5.78;;;3.80;99.90;;;;;;5081300;28;20069;-84
2022/12/03 08:14:16;;;;;;;17.92;7.13;;;2.80;99.90;;;;;;5095662;28;20036;-84
2022/12/03 08:16:43;;;;;;;14.00;5.78;;;4.10;99.90;;;;;;5076711;28;20047;-83
2022/12/03 08:19:11;;;;;;;17.52;6.50;;;4.20;99.90;;;;;;5085655;28;20380;-83
2022/12/03 08:21:38;;;;;;;16.73;5.97;;;4.30;99.90;;;;;;5098066;27;20547;-83
2022/12/03 08:24:18;;;;;;;16.25;7.30;;;2.70;99.90;;;;;;5100037;28;20493;-82
2022/12/03 08:26:47;;;;;;;16.50;6.30;;;2.80;99.90;;;;;;5098700;28;20076;-83
2022/12/03 08:29:15;;;;;;;21.58;6.90;;;3.90;99.90;;;;;;5082754;28;20032;-83
2022/12/03 08:31:46;;;;;;;16.50;7.45;;;3.10;99.90;;;;;;5091645;28;20039;-82
2022/12/03 08:34:15;;;;;;;16.60;6.18;;;4.60;99.90;;;;;;5079860;23;20053;-81
2022/12/03 08:36:41;;;;;;;17.73;6.10;;;2.70;99.90;;;;;;5090030;28;20480;-81
2022/12/03 08:39:32;;;;;;;15.23;5.78;;;2.70;99.90;;;;;;5079224;28;20046;-81
2022/12/03 08:46:15;;;;;;;15.98;6.63;;;3.40;99.90;;;;;;5087599;28;20125;-83
2022/12/03 08:48:42;;;;;;;14.43;6.15;;;2.80;99.90;;;;;;5087922;28;20044;-84
2022/12/03 08:51:19;;;;;;;13.40;6.07;;;2.80;99.90;;;;;;5083065;28;20396;-84
2022/12/03 08:53:50;;;;;;;16.60;7.05;;;2.80;99.90;;;;;;5076258;28;20388;-84
2022/12/03 08:56:25;;;;;;;14.23;5.80;;;2.70;99.90;;;;;;5093023;28;20044;-84
2022/12/03 08:58:55;;;;;;;17.27;6.50;;;3.90;99.90;;;;;;5072386;28;20174;-84
2022/12/03 09:01:31;;;;;;;12.00;5.80;;;2.80;99.90;;;;;;5080180;28;20123;-84
2022/12/03 09:04:20;;;;;;;;;;;3.00;99.90;;;;;;5096902;28;20048;-82
2022/12/03 09:06:46;;;;;;;16.48;6.13;;;2.80;99.90;;;;;;5082513;28;19920;-81
2022/12/03 09:09:11;;;;;;;18.40;7.25;;;4.20;99.90;;;;;;5095957;28;20039;-82
2022/12/03 09:11:37;;;;;;;16.65;6.78;;;3.80;99.90;;;;;;5088568;28;20040;-81
2022/12/03 09:14:04;;;;;;;15.68;6.57;;;3.60;99.90;;;;;;5069446;28;20131;-81
2022/12/03 09:16:30;;;;;;;14.95;6.53;;;4.40;99.90;;;;;;5078919;28;20043;-80
2022/12/03 09:18:55;;;;;;;19.05;6.80;;;3.50;99.90;;;;;;5087981;28;20055;-79
2022/12/03 09:21:21;;;;;;;15.75;6.50;;;2.80;99.90;;;;;;5089060;28;20059;-80
2022/12/03 09:23:47;;;;;;;14.55;6.35;;;2.80;99.90;;;;;;5094068;28;20055;-83
2022/12/03 09:26:13;;;;;;;17.38;6.45;;;2.80;99.90;;;;;;5095169;28;20512;-83
2022/12/03 09:28:39;;;;;;;16.58;7.55;;;2.80;99.90;;;;;;5095731;28;20043;-83
2022/12/03 09:31:04;;;;;;;13.55;6.45;;;3.10;99.90;;;;;;5090038;28;20036;-83
2022/12/03 09:33:31;;;;;;;14.15;6.82;;;4.20;99.90;;;;;;5049676;28;20515;-82
2022/12/03 09:35:58;;;;;;;18.45;7.30;;;2.90;99.90;;;;;;5094903;28;20047;-83
2022/12/03 09:38:24;;;;;;;21.13;7.43;;;3.10;99.90;;;;;;5081667;28;20043;-81
2022/12/03 09:40:50;;;;;;;17.90;5.55;;;4.00;99.90;;;;;;5098380;28;20446;-81
2022/12/03 09:43:16;;;;;;;18.92;7.55;;;3.70;99.90;;;;;;5095902;28;20051;-81
2022/12/03 09:45:46;;;;;;;15.38;6.45;;;4.30;99.90;;;;;;5081023;28;20049;-81
2022/12/03 09:48:16;;;;;;;17.83;6.65;;;2.90;99.90;;;;;;5103186;28;20547;-82
2022/12/03 09:50:43;;;;;;;27.85;9.77;;;2.90;99.90;;;;;;5096655;28;20035;-81
2022/12/03 09:53:16;;;;;;;17.25;7.32;;;2.90;99.90;;;;;;5085311;27;20110;-81
2022/12/03 09:55:44;;;;;;;14.88;7.22;;;2.90;99.90;;;;;;5115590;28;20036;-81
2022/12/03 09:58:15;;;;;;;16.80;5.85;;;2.90;99.90;;;;;;5118933;27;20043;-81
2022/12/03 10:00:44;;;;;;;17.00;7.53;;;4.20;99.90;;;;;;5118681;27;20074;-80
2022/12/03 10:03:12;;;;;;;18.33;6.72;;;2.80;99.90;;;;;;5113141;28;20043;-80
2022/12/03 10:05:39;;;;;;;19.23;7.05;;;2.80;99.90;;;;;;5081248;28;20387;-80
2022/12/03 10:08:11;;;;;;;19.27;7.18;;;2.80;99.90;;;;;;5097779;28;20032;-80
2022/12/03 10:10:41;;;;;;;21.85;7.20;;;2.80;99.90;;;;;;5076421;28;20502;-81
2022/12/03 10:13:11;;;;;;;14.65;6.68;;;2.80;99.90;;;;;;5045182;28;20115;-81
2022/12/03 10:15:37;;;;;;;27.10;8.05;;;3.40;99.90;;;;;;5100380;28;20040;-81
2022/12/03 10:18:22;;;;;;;18.30;6.80;;;2.80;99.90;;;;;;5060988;28;20035;-81
2022/12/03 10:20:49;;;;;;;26.25;8.20;;;2.80;99.90;;;;;;5062397;28;20102;-81
2022/12/03 10:23:28;;;;;;;15.27;6.30;;;3.70;99.90;;;;;;5096548;27;20048;-81
2022/12/03 10:26:02;;;;;;;17.88;6.70;;;2.80;99.90;;;;;;5089766;28;20077;-81
2022/12/03 10:28:34;;;;;;;21.33;8.60;;;2.90;99.90;;;;;;5099245;27;20119;-83
2022/12/03 10:31:02;;;;;;;19.52;7.30;;;3.30;99.90;;;;;;5097433;28;20051;-83
2022/12/03 10:33:38;;;;;;;17.65;6.97;;;2.80;99.90;;;;;;5078514;27;20114;-82
2022/12/03 10:36:14;;;;;;;19.63;7.25;;;2.90;99.90;;;;;;5103125;28;20046;-83
2022/12/03 10:38:40;;;;;;;17.65;6.45;;;2.80;99.90;;;;;;5086203;28;20050;-83
2022/12/03 10:41:26;;;;;;;18.90;7.45;;;2.60;99.90;;;;;;5063027;28;20126;-83
2022/12/03 10:43:52;;;;;;;18.70;7.50;;;2.80;99.90;;;;;;5080146;28;20043;-81
2022/12/03 10:46:21;;;;;;;17.45;7.10;;;2.60;99.90;;;;;;5096483;28;20439;-80
2022/12/03 10:49:09;;;;;;;19.27;7.25;;;2.80;99.90;;;;;;5062602;28;20493;-81
2022/12/03 10:51:36;;;;;;;17.33;7.90;;;4.60;99.90;;;;;;5080134;28;20088;-80
2022/12/03 10:54:02;;;;;;;22.05;7.05;;;2.20;99.90;;;;;;5097442;28;20035;-81
2022/12/03 10:56:29;;;;;;;19.77;6.95;;;2.90;99.90;;;;;;5077045;28;20517;-80
2022/12/03 10:58:55;;;;;;;20.65;7.20;;;2.80;99.90;;;;;;5080612;28;20104;-80
2022/12/03 11:01:24;;;;;;;18.38;6.90;;;2.80;99.90;;;;;;5097276;28;20083;-81
2022/12/03 11:03:50;;;;;;;17.85;6.63;;;2.80;99.90;;;;;;5079201;28;20075;-81
2022/12/03 11:06:19;;;;;;;17.30;7.07;;;2.90;99.90;;;;;;5089183;28;20042;-81
2022/12/03 11:08:53;;;;;;;17.90;7.82;;;2.80;99.90;;;;;;5103585;28;20027;-81
2022/12/03 11:11:29;;;;;;;18.67;7.63;;;2.80;99.90;;;;;;5093220;28;20040;-81
2022/12/03 11:14:00;;;;;;;22.20;7.47;;;2.90;99.90;;;;;;5079667;28;20476;-81
2022/12/03 11:16:38;;;;;;;17.38;7.50;;;2.80;99.90;;;;;;5096808;28;20047;-83
2022/12/03 11:19:14;;;;;;;15.77;6.85;;;3.00;99.90;;;;;;5059034;28;20052;-83
2022/12/03 11:21:59;;;;;;;;;;;2.80;99.90;;;;;;5094645;28;20426;-84
2022/12/03 11:24:24;;;;;;;23.27;8.13;;;2.70;99.90;;;;;;5084509;28;19916;-83
2022/12/03 11:26:50;;;;;;;19.58;7.03;;;2.70;99.90;;;;;;5076290;28;20044;-83
2022/12/03 11:29:37;;;;;;;17.42;7.70;;;3.00;99.90;;;;;;5076333;28;20123;-83
2022/12/03 11:32:02;;;;;;;19.30;8.30;;;2.70;99.90;;;;;;5095891;28;20123;-84
2022/12/03 11:34:28;;;;;;;22.23;7.93;;;3.30;99.90;;;;;;5070375;28;20131;-81
2022/12/03 11:37:09;;;;;;;16.88;6.78;;;2.70;99.90;;;;;;5079672;28;20051;-81
2022/12/03 11:39:44;;;;;;;18.30;7.40;;;2.70;99.90;;;;;;5096778;28;20054;-81
2022/12/03 11:42:25;;;;;;;20.67;7.72;;;2.70;99.90;;;;;;5096789;28;20085;-82
2022/12/03 11:45:07;;;;;;;20.60;8.35;;;2.70;99.90;;;;;;5096153;28;20047;-82
2022/12/03 11:47:37;;;;;;;16.25;7.47;;;3.80;99.90;;;;;;5096242;28;20055;-83
2022/12/03 11:50:22;;;;;;;17.92;7.72;;;2.80;99.90;;;;;;5095327;28;20482;-81
2022/12/03 11:52:54;;;;;;;18.80;7.15;;;2.80;99.90;;;;;;5076456;28;20036;-80
2022/12/03 11:55:43;;;;;;;17.08;7.60;;;2.80;99.90;;;;;;5059291;28;20044;-80
2022/12/03 11:58:21;;;;;;;17.00;6.82;;;2.80;99.90;;;;;;5076039;28;20043;-80
2022/12/03 12:00:55;;;;;;;24.87;8.73;;;2.70;99.90;;;;;;5064807;28;20047;-80
2022/12/03 12:03:35;;;;;;;18.35;6.93;;;3.50;99.90;;;;;;5095880;28;20043;-80
2022/12/03 12:06:12;;;;;;;22.87;8.13;;;2.80;99.90;;;;;;5096108;28;20047;-80
2022/12/03 12:08:40;;;;;;;21.88;7.13;;;2.70;99.90;;;;;;5096229;28;20062;-81
2022/12/03 12:11:37;;;;;;;26.15;9.60;;;2.90;99.90;;;;;;5094659;28;20048;-81
2022/12/03 12:14:10;;;;;;;22.25;9.07;;;2.80;99.90;;;;;;5051086;28;20509;-81
2022/12/03 12:16:49;;;;;;;16.38;7.32;;;3.10;99.90;;;;;;5093965;28;20040;-81
2022/12/03 12:19:34;;;;;;;20.38;8.32;;;2.60;99.90;;;;;;5068344;28;20043;-82
2022/12/03 12:22:13;;;;;;;23.65;9.02;;;2.70;99.90;;;;;;5090698;28;20054;-81
2022/12/03 12:24:39;;;;;;;16.97;7.73;;;2.30;99.90;;;;;;5095274;28;20390;-82
2022/12/03 12:27:13;;;;;;;18.23;7.57;;;2.70;99.90;;;;;;5093161;28;20487;-82
2022/12/03 12:29:41;;;;;;;18.08;7.95;;;2.70;99.90;;;;;;5075785;28;20458;-82
2022/12/03 12:32:10;;;;;;;20.67;7.72;;;2.70;99.90;;;;;;5071326;28;20059;-82
2022/12/03 12:34:41;;;;;;;23.15;7.78;;;4.30;99.90;;;;;;5078607;28;20093;-82
2022/12/03 12:37:26;;;;;;;21.15;8.30;;;2.70;99.90;;;;;;5093863;28;20550;-82
2022/12/03 12:39:55;;;;;;;19.48;7.40;;;2.80;99.90;;;;;;5082098;28;20031;-82
2022/12/03 12:42:33;;;;;;;20.65;8.57;;;2.80;99.90;;;;;;5078490;28;20054;-83
2022/12/03 12:45:14;;;;;;;20.75;7.82;;;3.00;99.90;;;;;;5074264;28;20130;-82
2022/12/03 12:47:46;;;;;;;18.63;7.57;;;2.70;99.90;;;;;;5065703;28;20036;-81
2022/12/03 12:50:13;;;;;;;18.83;7.75;;;2.70;99.90;;;;;;5096325;28;20031;-82
2022/12/03 12:52:49;;;;;;;19.05;6.97;;;2.70;99.90;;;;;;5106989;28;20505;-82
2022/12/03 12:55:16;;;;;;;16.95;6.75;;;2.70;99.90;;;;;;5112619;28;20514;-82
2022/12/03 12:57:42;;;;;;;21.33;7.57;;;2.80;99.90;;;;;;5073608;28;20047;-80
2022/12/03 13:00:21;;;;;;;20.30;9.10;;;4.10;99.90;;;;;;5095387;28;20489;-80
2022/12/03 13:03:00;;;;;;;16.77;8.20;;;2.70;99.90;;;;;;5095277;28;20036;-80
2022/12/03 13:05:37;;;;;;;20.10;7.70;;;2.70;99.90;;;;;;5097216;28;20047;-81
2022/12/03 13:08:15;;;;;;;19.73;7.07;;;3.60;99.90;;;;;;5091963;28;20126;-80
2022/12/03 13:10:41;;;;;;;18.47;7.83;;;2.60;99.90;;;;;;5095285;28;20043;-81
2022/12/03 13:13:14;;;;;;;16.45;7.85;;;2.60;99.90;;;;;;5061365;28;20035;-82
2022/12/03 13:15:48;;;;;;;17.35;8.52;;;2.50;99.90;;;;;;5095279;28;20047;-82
2022/12/03 13:18:25;;;;;;;23.37;8.47;;;2.50;99.90;;;;;;5094575;28;20035;-83
2022/12/03 13:20:52;;;;;;;20.45;7.35;;;2.50;99.90;;;;;;5082497;28;20445;-82
2022/12/03 13:23:27;;;;;;;21.60;9.35;;;2.40;99.90;;;;;;5095058;28;20503;-81
2022/12/03 13:25:52;;;;;;;21.10;7.57;;;2.50;99.90;;;;;;5096310;28;20161;-82
2022/12/03 13:28:18;;;;;;;19.83;7.88;;;3.40;99.90;;;;;;5090832;27;20106;-82